METAR & TAF

RJAH 210600Z 16009KT 9999 FEW025 11/01 Q1013
RJAH 210527Z 18007KT 9999 FEW025 SCT030 11/01 Q1013 RMK 1CU025 3CU030 A2994
RJAH 210500Z 21005KT 180V250 9999 FEW025 BKN030 11/01 Q1013
RJAH 210400Z 15004KT 090V200 9999 FEW025 SCT030 BKN050 10/01 Q1014
RJAH 210307Z VRB02KT 9999 FEW025 SCT030 BKN060 09/01 Q1014 RMK 1CU025 3CU030 5SC060 A2996
RJAH 210300Z 09005KT 030V150 9999 FEW030 SCT060 10/01 Q1014
RJAH 210200Z 04004KT 010V090 9999 FEW070 SCT250 09/01 Q1016

TAF RJAH 210513Z 2106/2212 16006KT 7000 FEW020 BKN040
  BECMG 2108/2110 02008KT
  BECMG 2203/2206 03018KT
  TEMPO 2203/2206 03020G30KT 2000 -SN FEW005 BKN008
  BECMG 2206/2209 2000 -SN
  TEMPO 2206/2212 03020G30KT 0500 SN VV003